Terminal Aerodrome Forecast
Issued by NWS

Home | Current Version | Previous Version | Text Only | Print | Product List | Glossary On
Versions: 1 2 3 4 5 6 7 8 9 10 11 12 13 14 15
680
FTUS42 KFFC 291140
TAFRYY
TAF
KRYY 291140Z 2912/3012 12008KT P6SM VCSH BKN020
     FM291600 15010KT 6SM -SHRA BKN020
      TEMPO 2919/2923 5SM TSRA BKN015CB
     FM300100 13008KT 4SM -RA BR BKN007=

USA.gov is the U.S. government's official web portal to all federal, state and local government web resources and services.